Time;durP1;ratioP1;P1;durP2;ratioP2;P2;SDS_P1;SDS_P2;PMS_P1;PMS_P2;Temp;Humidity;BMP_temperature;BMP_pressure;BME280_temperature;BME280_humidity;BME280_pressure;Samples;Min_cycle;Max_cycle;Signal;HPM_P1;HPM_P2
2024/03/10 00:01:08;;;;;;;2.40;1.40;;;;;;;-1.14;66.92;102487.66;5081787;28;20928;-82
2024/03/10 00:03:37;;;;;;;1.73;1.60;;;;;;;-1.10;67.02;102494.75;5089714;28;20448;-83
2024/03/10 00:06:05;;;;;;;2.60;1.50;;;;;;;-1.10;66.98;102505.88;5084183;28;20473;-82
2024/03/10 00:08:32;;;;;;;2.43;1.60;;;;;;;-1.10;66.85;102497.31;5085873;28;20542;-83
2024/03/10 00:10:59;;;;;;;2.03;1.67;;;;;;;-1.16;66.82;102484.16;5084471;28;20951;-83
2024/03/10 00:13:26;;;;;;;2.47;1.67;;;;;;;-1.08;67.33;102498.28;5088579;28;20458;-83
2024/03/10 00:16:00;;;;;;;3.00;2.10;;;;;;;-1.09;66.87;102496.50;5087080;28;20449;-82
2024/03/10 00:18:33;;;;;;;1.77;1.50;;;;;;;-1.24;66.13;102471.78;5081999;28;20534;-82
2024/03/10 00:21:02;;;;;;;1.80;1.57;;;;;;;-1.16;67.33;102484.16;5085100;28;20452;-84
2024/03/10 00:23:31;;;;;;;1.70;1.60;;;;;;;-1.08;66.64;102498.28;5088661;28;20450;-82
2024/03/10 00:26:04;;;;;;;1.90;1.70;;;;;;;-1.10;66.77;102499.88;5088078;28;20441;-80
2024/03/10 00:28:35;;;;;;;1.87;1.47;;;;;;;-1.13;66.52;102492.88;5085714;28;20448;-83
2024/03/10 00:31:04;;;;;;;1.43;1.30;;;;;;;-1.08;67.07;102501.72;5088415;28;20922;-81
2024/03/10 00:33:31;;;;;;;1.60;1.30;;;;;;;-1.06;66.71;102505.28;5082436;28;20440;-82
2024/03/10 00:35:58;;;;;;;1.60;1.50;;;;;;;-1.07;66.74;102497.47;5086877;28;20528;-83
2024/03/10 00:38:27;;;;;;;1.70;1.53;;;;;;;-1.09;66.60;102496.50;5083028;28;20536;-82
2024/03/10 00:40:55;;;;;;;2.30;1.90;;;;;;;-1.06;66.80;102497.56;5084250;28;20919;-83
2024/03/10 00:43:22;;;;;;;1.80;1.50;;;;;;;-1.06;66.75;102501.78;5092904;28;20424;-86
2024/03/10 00:45:50;;;;;;;1.90;1.50;;;;;;;-1.05;66.68;102501.00;5082150;28;20462;-82
2024/03/10 00:48:17;;;;;;;2.03;1.70;;;;;;;-1.04;66.68;102497.63;5089026;28;20957;-82
2024/03/10 00:50:44;;;;;;;2.57;1.50;;;;;;;-1.03;66.94;102496.81;5092138;28;20463;-84
2024/03/10 00:53:12;;;;;;;1.73;1.30;;;;;;;-1.03;67.44;102496.81;5079812;28;20475;-83
2024/03/10 00:55:42;;;;;;;1.47;1.30;;;;;;;-1.01;66.73;102490.06;5082337;28;20455;-83
2024/03/10 00:58:10;;;;;;;2.10;1.70;;;;;;;-0.99;66.83;102488.47;5090240;28;20691;-81
2024/03/10 01:00:37;;;;;;;2.20;1.67;;;;;;;-1.00;66.84;102491.88;5080718;28;20460;-82
2024/03/10 01:03:06;;;;;;;1.73;1.50;;;;;;;-1.04;67.27;102474.50;5083163;28;20798;-83
2024/03/10 01:05:33;;;;;;;2.43;2.07;;;;;;;-0.98;66.58;102490.22;5083427;28;20506;-82
2024/03/10 01:08:00;;;;;;;1.97;1.73;;;;;;;-1.00;67.03;102484.16;5082948;28;20455;-83
2024/03/10 01:10:27;;;;;;;2.70;1.83;;;;;;;-1.01;66.58;102479.81;5081157;28;20942;-84
2024/03/10 01:12:56;;;;;;;3.37;1.70;;;;;;;-1.10;66.61;102462.22;5079730;28;20562;-82
2024/03/10 01:15:23;;;;;;;2.33;1.83;;;;;;;-0.99;66.65;102482.47;5088411;28;20447;-83
2024/03/10 01:17:50;;;;;;;2.30;1.60;;;;;;;-0.98;66.95;102486.78;5087633;28;20448;-82
2024/03/10 01:20:20;;;;;;;1.83;1.43;;;;;;;-1.00;66.83;102484.16;5082341;28;20449;-83
2024/03/10 01:22:51;;;;;;;2.30;1.33;;;;;;;-1.16;67.43;102453.31;5085153;28;20464;-82
2024/03/10 01:25:19;;;;;;;2.03;1.50;;;;;;;-1.01;67.17;102479.81;5079953;28;20555;-82
2024/03/10 01:27:46;;;;;;;3.33;1.70;;;;;;;-1.01;66.67;102480.69;5085627;28;20482;-81
2024/03/10 01:30:15;;;;;;;2.00;1.73;;;;;;;-1.02;67.17;102484.06;5087452;28;20789;-83
2024/03/10 01:32:42;;;;;;;2.03;1.53;;;;;;;-1.08;67.04;102464.88;5087014;28;20566;-82
2024/03/10 01:35:10;;;;;;;2.47;1.80;;;;;;;-1.00;66.55;102481.59;5085873;28;20453;-79
2024/03/10 01:37:38;;;;;;;2.20;1.47;;;;;;;-1.06;67.12;102468.41;5088794;28;20484;-82
2024/03/10 01:40:06;;;;;;;3.03;1.53;;;;;;;-1.00;66.94;102476.44;5089527;28;20455;-82
2024/03/10 01:42:33;;;;;;;3.13;1.70;;;;;;;-0.95;66.84;102481.81;5084905;28;20480;-83
2024/03/10 01:45:01;;;;;;;3.20;1.70;;;;;;;-0.95;67.03;102484.38;5081932;28;20861;-82
2024/03/10 01:47:30;;;;;;;1.90;1.43;;;;;;;-0.94;66.82;102486.13;5084286;28;20441;-82
2024/03/10 01:49:57;;;;;;;1.30;1.20;;;;;;;-0.94;66.94;102489.59;5089670;28;21004;-82
2024/03/10 01:52:25;;;;;;;1.43;1.33;;;;;;;-0.91;66.99;102486.31;5088368;28;20849;-82
2024/03/10 01:54:54;;;;;;;1.40;1.30;;;;;;;-0.90;66.55;102488.94;5084928;28;20441;-83
2024/03/10 01:57:21;;;;;;;2.20;1.40;;;;;;;-0.87;66.50;102488.22;5085602;28;20440;-82
2024/03/10 01:59:49;;;;;;;1.50;1.40;;;;;;;-0.93;66.03;102472.50;5086027;28;21004;-81
2024/03/10 02:02:16;;;;;;;1.30;1.20;;;;;;;-0.88;66.18;102491.63;5083762;28;20465;-82
2024/03/10 02:04:45;;;;;;;1.50;1.40;;;;;;;-0.90;65.77;102481.25;5089898;28;20490;-82
2024/03/10 02:07:12;;;;;;;1.73;1.60;;;;;;;-0.87;66.35;102488.22;5087056;28;20478;-82
2024/03/10 02:09:39;;;;;;;1.83;1.57;;;;;;;-0.85;66.40;102495.22;5084416;28;20989;-83
2024/03/10 02:12:07;;;;;;;1.67;1.20;;;;;;;-0.86;65.86;102496.03;5085664;28;20487;-83
2024/03/10 02:14:40;;;;;;;1.90;1.70;;;;;;;-0.85;65.30;102497.78;5088164;28;20439;-81
2024/03/10 02:17:14;;;;;;;1.90;1.30;;;;;;;-0.94;65.74;102481.91;5096352;28;21065;-84
2024/03/10 02:19:41;;;;;;;2.77;1.53;;;;;;;-0.86;65.14;102501.16;5091577;28;20454;-83
2024/03/10 02:22:10;;;;;;;1.90;1.40;;;;;;;-0.82;65.72;102505.66;5085599;28;20916;-82
2024/03/10 02:24:44;;;;;;;1.93;1.70;;;;;;;-0.84;65.83;102499.53;5089658;28;20456;-83
2024/03/10 02:27:16;;;;;;;2.13;1.80;;;;;;;-0.82;65.75;102503.09;5088562;28;20440;-81
2024/03/10 02:30:00;;;;;;;1.83;1.73;;;;;;;-0.90;65.70;102494.09;5092672;28;20476;-81
2024/03/10 02:48:51;;;;;;;3.13;1.60;;;;;;;-0.81;65.11;102509.97;5031740;28;20433;-82
2024/03/10 02:51:18;;;;;;;1.60;1.50;;;;;;;-0.78;65.62;102510.13;5089453;28;20446;-82
2024/03/10 02:53:46;;;;;;;2.37;1.90;;;;;;;-0.76;65.52;102511.91;5083075;28;20487;-83
2024/03/10 02:56:14;;;;;;;2.70;1.60;;;;;;;-0.76;65.86;102515.38;5091807;28;20440;-83
2024/03/10 02:58:42;;;;;;;2.10;1.90;;;;;;;-0.78;65.84;102505.00;5089490;28;20796;-84
2024/03/10 03:01:10;;;;;;;1.67;1.23;;;;;;;-0.81;65.09;102501.38;5090167;28;20447;-82
2024/03/10 03:03:37;;;;;;;2.40;1.57;;;;;;;-0.85;65.35;102490.06;5085331;28;20476;-83
2024/03/10 03:06:06;;;;;;;1.77;1.67;;;;;;;-0.75;65.03;102503.38;5088792;28;20526;-83
2024/03/10 03:08:33;;;;;;;2.70;1.70;;;;;;;-0.73;65.20;102507.81;5088272;28;21004;-82
2024/03/10 03:11:00;;;;;;;2.13;1.60;;;;;;;-0.82;65.20;102494.50;5086293;28;20830;-81
2024/03/10 03:13:27;;;;;;;2.63;1.50;;;;;;;-0.84;65.12;102494.41;5084573;28;20568;-83
2024/03/10 03:15:58;;;;;;;1.40;1.10;;;;;;;-0.76;65.72;102505.09;5078884;28;20440;-81
2024/03/10 03:18:26;;;;;;;2.00;1.73;;;;;;;-0.72;65.06;102509.56;5084695;28;20452;-82
2024/03/10 03:20:53;;;;;;;1.40;1.30;;;;;;;-0.71;65.06;102516.50;5088188;28;20521;-83
2024/03/10 03:23:19;;;;;;;2.73;1.57;;;;;;;-0.73;65.04;102509.50;5084895;28;20449;-83
2024/03/10 03:25:48;;;;;;;2.23;1.50;;;;;;;-0.74;64.83;102505.16;5084494;28;20451;-81
2024/03/10 03:28:17;;;;;;;2.20;1.63;;;;;;;-0.71;64.73;102510.47;5089988;28;20915;-83
2024/03/10 03:30:45;;;;;;;1.97;1.73;;;;;;;-0.71;65.19;102500.19;5090582;28;20787;-83
2024/03/10 03:33:14;;;;;;;2.10;1.43;;;;;;;-0.72;65.22;102504.41;5094969;28;20537;-83
2024/03/10 03:35:41;;;;;;;3.37;1.73;;;;;;;-0.75;64.54;102495.69;5085164;28;20443;-82
2024/03/10 03:38:09;;;;;;;2.43;1.60;;;;;;;-0.70;64.44;102505.38;5084011;28;20445;-82
2024/03/10 03:40:36;;;;;;;3.23;1.70;;;;;;;-0.70;64.53;102507.09;5086352;28;20807;-82
2024/03/10 03:43:04;;;;;;;1.43;1.33;;;;;;;-0.78;64.54;102498.97;5086149;28;20448;-83
2024/03/10 03:45:35;;;;;;;1.57;1.10;;;;;;;-0.72;64.83;102509.56;5085188;28;20468;-82
2024/03/10 03:48:04;;;;;;;1.60;1.50;;;;;;;-0.74;64.64;102505.16;5086457;28;20449;-81
2024/03/10 03:50:34;;;;;;;1.87;1.40;;;;;;;-0.73;65.16;102512.06;5081205;28;20440;-82
2024/03/10 03:53:02;;;;;;;2.80;1.40;;;;;;;-0.77;65.48;102495.63;5076574;28;20513;-81
2024/03/10 03:55:29;;;;;;;2.23;1.40;;;;;;;-0.73;65.07;102506.94;5082103;28;20910;-83
2024/03/10 03:57:56;;;;;;;2.07;1.60;;;;;;;-0.81;64.57;102494.56;5084929;28;20441;-82
2024/03/10 04:00:23;;;;;;;1.50;1.40;;;;;;;-0.71;64.95;102508.78;5084084;28;20441;-82
2024/03/10 04:02:50;;;;;;;1.50;1.30;;;;;;;-0.67;65.21;102512.38;5082173;28;20932;-83
2024/03/10 04:05:17;;;;;;;2.17;1.60;;;;;;;-0.79;65.26;102492.94;5084911;28;20475;-82
2024/03/10 04:07:46;;;;;;;1.57;1.43;;;;;;;-0.67;65.38;102514.94;5089249;28;20449;-82
2024/03/10 04:10:15;;;;;;;2.13;1.60;;;;;;;-0.67;64.65;102512.38;5084407;28;20447;-83
2024/03/10 04:12:42;;;;;;;1.93;1.50;;;;;;;-0.63;64.78;102514.28;5084975;28;20575;-83
2024/03/10 04:15:09;;;;;;;2.50;1.63;;;;;;;-0.69;65.32;102509.72;5081947;28;20464;-83
2024/03/10 04:17:37;;;;;;;1.80;1.30;;;;;;;-0.66;64.96;102514.13;5078162;28;20896;-82
2024/03/10 04:20:06;;;;;;;2.27;1.30;;;;;;;-0.63;65.22;102522.00;5084929;28;20456;-82
2024/03/10 04:22:33;;;;;;;1.13;1.03;;;;;;;-0.63;64.94;102519.44;5084694;28;20433;-82
2024/03/10 04:25:02;;;;;;;1.67;1.30;;;;;;;-0.62;65.48;102516.06;5085036;28;20491;-82
2024/03/10 04:27:30;;;;;;;1.30;1.13;;;;;;;-0.65;64.96;102511.66;5078658;28;20515;-82
2024/03/10 04:29:57;;;;;;;5.03;1.50;;;;;;;-0.62;64.92;102519.53;5081633;28;20449;-83
2024/03/10 04:32:24;;;;;;;1.60;1.33;;;;;;;-0.78;65.37;102488.69;5083755;28;20440;-81
2024/03/10 04:34:53;;;;;;;1.93;1.07;;;;;;;-0.62;65.42;102518.66;5083579;28;20525;-83
2024/03/10 04:37:20;;;;;;;2.10;0.87;;;;;;;-0.65;65.04;102515.91;5087150;28;20440;-81
2024/03/10 04:39:47;;;;;;;1.97;1.33;;;;;;;-0.70;64.73;102507.09;5081317;28;20441;-81
2024/03/10 04:42:16;;;;;;;2.03;0.93;;;;;;;-0.65;64.93;102521.06;5090469;28;20523;-83
2024/03/10 04:44:43;;;;;;;1.33;1.13;;;;;;;-0.64;64.74;102522.81;5081457;28;20448;-84
2024/03/10 04:47:12;;;;;;;0.77;0.77;;;;;;;-0.74;64.64;102507.72;5075206;28;20441;-81
2024/03/10 04:49:39;;;;;;;1.67;1.00;;;;;;;-0.65;63.77;102526.22;5075521;28;20532;-84
2024/03/10 04:52:08;;;;;;;1.20;1.10;;;;;;;-0.68;64.45;102520.91;5087565;28;20448;-82
2024/03/10 04:54:35;;;;;;;1.80;1.40;;;;;;;-0.69;63.89;102524.25;5085583;28;20523;-81
2024/03/10 04:57:02;;;;;;;1.53;1.30;;;;;;;-0.68;64.10;102528.63;5085361;28;20879;-82
2024/03/10 04:59:32;;;;;;;1.60;1.37;;;;;;;-0.70;64.00;102527.66;5078105;28;20542;-82
2024/03/10 05:02:01;;;;;;;1.40;1.30;;;;;;;-0.67;64.04;102532.94;5086982;28;20438;-80
2024/03/10 05:04:28;;;;;;;1.00;1.00;;;;;;;-0.67;63.71;102540.66;5083608;28;20480;-84
2024/03/10 05:06:55;;;;;;;1.43;1.10;;;;;;;-0.67;64.01;102538.09;5084115;28;20473;-81
2024/03/10 05:09:23;;;;;;;1.70;1.17;;;;;;;-0.67;64.68;102538.09;5091688;28;20841;-81
2024/03/10 05:11:49;;;;;;;1.80;1.30;;;;;;;-0.72;63.84;102527.56;5081153;28;20808;-80
2024/03/10 05:14:16;;;;;;;0.73;0.73;;;;;;;-0.71;63.53;102526.78;5082124;28;20997;-83
2024/03/10 05:16:45;;;;;;;2.53;1.70;;;;;;;-0.69;63.35;102540.56;5079859;28;20597;-79
2024/03/10 05:19:12;;;;;;;1.53;0.97;;;;;;;-0.74;63.61;102541.13;5085731;28;20437;-81
2024/03/10 05:21:39;;;;;;;2.37;1.60;;;;;;;-0.83;63.24;102527.03;5080021;28;20453;-80
2024/03/10 05:24:07;;;;;;;0.70;0.70;;;;;;;-0.71;63.22;102551.59;5083554;28;20426;-80
2024/03/10 05:26:34;;;;;;;1.50;1.10;;;;;;;-0.72;63.33;102555.81;5087017;28;20452;-83
2024/03/10 05:29:01;;;;;;;1.23;1.13;;;;;;;-0.73;63.07;102548.94;5087364;28;21002;-83
2024/03/10 05:31:29;;;;;;;0.63;0.63;;;;;;;-0.81;63.43;102535.66;5079549;28;20527;-82
2024/03/10 05:33:59;;;;;;;1.33;1.17;;;;;;;-0.74;61.80;102551.41;5077922;28;20488;-83
2024/03/10 05:36:26;;;;;;;1.20;1.10;;;;;;;-0.78;62.30;102553.81;5083468;28;20443;-81
2024/03/10 05:38:54;;;;;;;1.37;1.10;;;;;;;-0.80;62.18;102554.56;5085412;28;20580;-82
2024/03/10 05:41:21;;;;;;;2.30;1.23;;;;;;;-0.79;62.62;102549.50;5082175;28;20451;-82
2024/03/10 05:43:48;;;;;;;2.30;1.50;;;;;;;-0.79;61.87;102553.75;5080266;28;20459;-81
2024/03/10 05:46:15;;;;;;;1.20;1.10;;;;;;;-0.76;62.48;102565.88;5085190;28;20453;-84
2024/03/10 05:48:42;;;;;;;1.83;1.50;;;;;;;-0.78;62.35;102564.09;5084951;28;20487;-83
2024/03/10 05:51:13;;;;;;;1.43;1.20;;;;;;;-0.77;62.45;102567.59;5087334;28;20439;-82
2024/03/10 05:53:40;;;;;;;2.07;1.30;;;;;;;-0.78;62.88;102561.53;5077866;28;20468;-83
2024/03/10 05:56:08;;;;;;;1.73;1.40;;;;;;;-0.79;62.39;102562.34;5081997;28;20448;-82
2024/03/10 05:58:38;;;;;;;4.13;1.50;;;;;;;-0.78;62.64;102569.25;5081989;28;20475;-82
2024/03/10 06:01:05;;;;;;;1.97;1.40;;;;;;;-0.88;62.41;102554.16;5081260;28;20528;-84
2024/03/10 06:03:32;;;;;;;2.10;1.43;;;;;;;-0.79;62.61;102564.03;5084756;28;20456;-82
2024/03/10 06:05:59;;;;;;;1.93;1.43;;;;;;;-0.80;62.64;102572.56;5081106;28;21062;-81
2024/03/10 06:08:28;;;;;;;1.03;0.93;;;;;;;-0.81;62.92;102571.66;5084827;28;20480;-83
2024/03/10 06:10:57;;;;;;;1.30;1.20;;;;;;;-0.89;62.22;102547.22;5084868;28;20448;-84
2024/03/10 06:13:24;;;;;;;1.03;0.93;;;;;;;-0.80;62.81;102573.44;5086944;28;20477;-81
2024/03/10 06:15:52;;;;;;;0.90;0.63;;;;;;;-0.81;62.65;102581.06;5091552;28;20459;-82
2024/03/10 06:18:21;;;;;;;1.40;1.20;;;;;;;-0.84;62.81;102579.19;5085923;28;20457;-82
2024/03/10 06:26:21;;;;;;;1.20;1.10;;;;;;;-0.90;62.26;102578.00;5087478;28;20428;-82
2024/03/10 06:28:49;;;;;;;1.57;1.10;;;;;;;-0.84;62.26;102586.91;5083680;28;20794;-82
2024/03/10 06:31:16;;;;;;;5.10;1.13;;;;;;;-0.83;62.30;102587.78;5083782;28;20444;-82
2024/03/10 06:33:44;;;;;;;1.97;1.23;;;;;;;-0.83;62.39;102588.69;5086791;28;20486;-83
2024/03/10 06:36:13;;;;;;;1.07;0.90;;;;;;;-0.83;62.40;102585.22;5081525;28;20441;-82
2024/03/10 06:38:42;;;;;;;1.83;1.27;;;;;;;-0.92;62.46;102574.47;5089298;28;20444;-82
2024/03/10 06:41:10;;;;;;;1.20;1.10;;;;;;;-0.79;62.56;102600.91;5084808;28;20468;-82
2024/03/10 06:43:38;;;;;;;1.30;1.20;;;;;;;-0.80;62.14;102596.56;5090064;28;20458;-82
2024/03/10 06:46:05;;;;;;;2.30;1.23;;;;;;;-0.81;62.40;102594.78;5090125;28;20444;-84
2024/03/10 06:48:36;;;;;;;1.30;1.20;;;;;;;-0.79;62.63;102605.16;5088804;28;20544;-83
2024/03/10 06:51:08;;;;;;;1.97;1.37;;;;;;;-0.77;62.54;102601.00;5086235;28;20792;-82
2024/03/10 06:53:42;;;;;;;1.20;1.10;;;;;;;-0.78;62.36;102597.50;5082478;28;20489;-82
2024/03/10 06:56:12;;;;;;;1.53;1.00;;;;;;;-0.79;62.41;102598.31;5093087;28;20436;-83
2024/03/10 06:58:39;;;;;;;2.63;1.30;;;;;;;-0.84;62.66;102592.06;5082974;28;20445;-82
2024/03/10 07:01:06;;;;;;;1.40;1.07;;;;;;;-0.76;62.44;102601.88;5087234;28;20487;-83
2024/03/10 07:03:35;;;;;;;1.70;0.83;;;;;;;-0.79;62.60;102600.03;5088383;28;20443;-82
2024/03/10 07:06:03;;;;;;;0.90;0.90;;;;;;;-0.75;62.86;102599.38;5088983;28;20833;-82
2024/03/10 07:08:31;;;;;;;2.80;1.37;;;;;;;-0.75;62.76;102606.19;5080234;28;20445;-81
2024/03/10 07:10:59;;;;;;;1.40;0.70;;;;;;;-0.77;62.19;102606.13;5086734;28;20459;-81
2024/03/10 07:13:26;;;;;;;1.60;1.17;;;;;;;-0.79;63.11;102603.47;5084064;28;20470;-83
2024/03/10 07:15:54;;;;;;;1.67;1.00;;;;;;;-0.82;62.46;102600.72;5085316;28;20452;-80
2024/03/10 07:18:21;;;;;;;3.30;1.10;;;;;;;-0.86;62.95;102583.41;5087485;28;20851;-82
2024/03/10 07:20:48;;;;;;;1.50;0.80;;;;;;;-0.73;63.02;102615.75;5085110;28;20450;-81
2024/03/10 07:23:17;;;;;;;1.20;1.00;;;;;;;-0.70;63.07;102615.03;5087009;28;20534;-80
2024/03/10 07:25:44;;;;;;;1.00;0.90;;;;;;;-0.70;62.51;102615.03;5079601;28;20962;-82
2024/03/10 07:28:12;;;;;;;1.20;1.10;;;;;;;-0.79;62.21;102606.03;5086767;28;20453;-81
2024/03/10 07:30:39;;;;;;;1.43;1.10;;;;;;;-0.70;62.45;102612.47;5083267;28;20808;-83
2024/03/10 07:33:06;;;;;;;1.33;1.03;;;;;;;-0.69;62.33;102611.66;5090175;28;20458;-82
2024/03/10 07:35:34;;;;;;;1.97;0.70;;;;;;;-0.71;62.27;102614.16;5083856;28;20440;-82
2024/03/10 07:38:01;;;;;;;2.47;0.90;;;;;;;-0.69;62.83;102609.97;5083106;28;20781;-84
2024/03/10 07:40:28;;;;;;;1.00;0.90;;;;;;;-0.69;62.55;102621.94;5084103;28;20490;-81
2024/03/10 07:42:55;;;;;;;1.50;0.90;;;;;;;-0.80;61.45;102583.72;5087588;28;20448;-83
2024/03/10 07:45:26;;;;;;;2.00;1.40;;;;;;;-0.69;62.20;102612.53;5084082;28;20468;-81
2024/03/10 07:47:53;;;;;;;1.60;1.10;;;;;;;-0.65;61.59;102619.63;5085495;28;20562;-82
2024/03/10 07:50:20;;;;;;;2.00;1.00;;;;;;;-0.65;62.22;102616.19;5087332;28;20441;-79
2024/03/10 07:52:48;;;;;;;2.40;1.00;;;;;;;-0.74;61.80;102597.66;5082169;28;20440;-78
2024/03/10 07:55:16;;;;;;;1.00;0.90;;;;;;;-0.66;62.04;102609.25;5082732;28;20557;-79
2024/03/10 07:57:43;;;;;;;1.13;0.90;;;;;;;-0.69;61.64;102598.81;5087013;28;20452;-81
2024/03/10 08:00:14;;;;;;;1.80;1.27;;;;;;;-0.68;62.05;102608.31;5085435;28;20528;-77
2024/03/10 08:02:43;;;;;;;1.23;0.83;;;;;;;-0.62;61.83;102608.63;5088863;28;20491;-79
2024/03/10 08:05:12;;;;;;;1.23;1.13;;;;;;;-0.59;61.74;102617.38;5082431;28;20434;-79
2024/03/10 08:07:40;;;;;;;0.80;0.80;;;;;;;-0.60;62.10;102607.91;5081536;28;20441;-78
2024/03/10 08:10:09;;;;;;;1.53;1.10;;;;;;;-0.56;61.69;102609.81;5074810;28;20483;-76
2024/03/10 08:12:36;;;;;;;2.97;1.10;;;;;;;-0.55;62.52;102618.41;5077792;28;20448;-79
2024/03/10 08:15:03;;;;;;;1.37;1.10;;;;;;;-0.53;62.30;102613.34;5086310;28;20487;-82
2024/03/10 08:17:30;;;;;;;1.50;1.33;;;;;;;-0.63;62.34;102596.56;5092359;28;20470;-80
2024/03/10 08:19:59;;;;;;;0.80;0.80;;;;;;;-0.50;61.94;102627.25;5089642;28;20465;-77
2024/03/10 08:22:26;;;;;;;1.47;1.10;;;;;;;-0.49;62.07;102623.88;5088602;28;20489;-78
2024/03/10 08:24:53;;;;;;;1.67;1.00;;;;;;;-0.50;62.44;102619.53;5081089;28;20478;-76
2024/03/10 08:27:20;;;;;;;1.83;1.20;;;;;;;-0.45;62.45;102628.38;5078471;28;20429;-81
2024/03/10 08:29:48;;;;;;;1.30;1.10;;;;;;;-0.43;62.50;102625.88;5082647;28;20453;-79
2024/03/10 08:32:16;;;;;;;0.87;0.87;;;;;;;-0.38;62.22;102634.72;5085743;28;20936;-80
2024/03/10 08:34:43;;;;;;;1.00;0.93;;;;;;;-0.42;62.67;102625.09;5081700;28;20487;-80
2024/03/10 08:37:14;;;;;;;1.63;1.10;;;;;;;-0.36;62.36;102628.84;5083844;28;20443;-78
2024/03/10 08:39:41;;;;;;;1.30;1.20;;;;;;;-0.34;62.49;102632.41;5088329;28;20455;-81
2024/03/10 08:42:10;;;;;;;1.50;1.40;;;;;;;-0.32;61.99;102629.88;5077919;28;20441;-80
2024/03/10 08:44:37;;;;;;;0.93;0.93;;;;;;;-0.30;62.12;102629.97;5087317;28;20448;-82
2024/03/10 08:47:05;;;;;;;2.57;1.30;;;;;;;-0.31;62.08;102625.66;5075218;28;20473;-82
2024/03/10 08:49:33;;;;;;;2.50;1.30;;;;;;;-0.28;61.96;102631.84;5078107;28;20430;-82
2024/03/10 08:52:01;;;;;;;1.67;1.40;;;;;;;-0.27;61.96;102632.72;5082016;28;20440;-82
2024/03/10 08:54:30;;;;;;;1.17;1.07;;;;;;;-0.29;61.70;102629.16;5084325;28;20587;-83
2024/03/10 08:56:57;;;;;;;2.30;1.23;;;;;;;-0.27;61.37;102632.72;5089476;28;20448;-83
2024/03/10 08:59:25;;;;;;;1.63;1.30;;;;;;;-0.35;60.91;102625.50;5085104;28;20443;-77
2024/03/10 09:01:52;;;;;;;2.70;1.20;;;;;;;-0.25;60.74;102641.41;5090099;28;20444;-83
2024/03/10 09:04:19;;;;;;;1.50;1.30;;;;;;;-0.24;60.32;102645.72;5084082;28;20512;-84
2024/03/10 09:06:46;;;;;;;1.93;1.23;;;;;;;-0.38;61.08;102615.03;5086997;28;20838;-82
2024/03/10 09:09:18;;;;;;;1.73;1.10;;;;;;;-0.22;60.93;102642.44;5078427;28;20480;-82
2024/03/10 09:11:48;;;;;;;1.30;1.20;;;;;;;-0.23;60.41;102632.03;5089440;28;20547;-81
2024/03/10 09:14:16;;;;;;;2.17;1.10;;;;;;;-0.23;60.72;102630.38;5083081;28;20526;-77
2024/03/10 09:16:43;;;;;;;1.93;1.30;;;;;;;-0.19;60.53;102631.41;5090040;28;20543;-76
2024/03/10 09:19:10;;;;;;;1.73;0.60;;;;;;;-0.19;60.45;102628.84;5082731;28;20917;-78
2024/03/10 09:21:38;;;;;;;1.73;1.00;;;;;;;-0.20;61.10;102625.38;5083031;28;20931;-76
2024/03/10 09:24:05;;;;;;;2.60;1.37;;;;;;;-0.17;60.43;102619.53;5076898;28;20453;-77
2024/03/10 09:26:32;;;;;;;1.57;1.07;;;;;;;-0.11;60.68;102631.00;5076391;28;20524;-77
2024/03/10 09:29:01;;;;;;;1.37;1.13;;;;;;;-0.12;60.90;102633.47;5084779;28;20514;-78
2024/03/10 09:31:28;;;;;;;2.07;1.20;;;;;;;-0.20;60.33;102616.78;5075027;28;20946;-75
2024/03/10 09:33:57;;;;;;;2.17;1.47;;;;;;;-0.12;60.63;102629.25;5077746;28;20529;-76
2024/03/10 09:36:24;;;;;;;1.67;1.20;;;;;;;-0.07;60.08;102632.03;5082126;28;20449;-76
2024/03/10 09:38:52;;;;;;;1.67;1.37;;;;;;;-0.04;60.81;102631.31;5075780;28;20507;-77
2024/03/10 09:41:20;;;;;;;1.50;1.40;;;;;;;-0.15;59.79;102612.75;5078988;28;20520;-79
2024/03/10 09:43:51;;;;;;;2.10;1.23;;;;;;;-0.04;60.14;102623.59;5083922;28;20442;-81
2024/03/10 09:46:21;;;;;;;1.40;1.30;;;;;;;-0.02;60.05;102632.28;5086510;28;20509;-77
2024/03/10 09:48:50;;;;;;;1.10;1.00;;;;;;;-0.01;59.86;102634.91;5089751;28;20495;-79
2024/03/10 09:51:19;;;;;;;1.80;1.60;;;;;;;-0.00;60.38;102628.09;5086686;28;20527;-77
2024/03/10 09:53:46;;;;;;;2.53;1.70;;;;;;;-0.07;60.30;102611.44;5088702;28;20447;-79
2024/03/10 09:56:13;;;;;;;1.83;1.50;;;;;;;-0.13;60.45;102606.00;5080314;28;20485;-77
2024/03/10 09:58:47;;;;;;;2.23;1.40;;;;;;;0.01;59.93;102635.00;5086648;28;20964;-85
2024/03/10 10:01:18;;;;;;;0.67;0.67;;;;;;;0.00;60.24;102631.56;5084920;28;20447;-82
2024/03/10 10:03:49;;;;;;;1.80;1.30;;;;;;;0.02;60.40;102631.59;5093085;28;20452;-81
2024/03/10 10:06:18;;;;;;;1.30;1.20;;;;;;;0.02;60.29;102632.50;5086093;28;20479;-83
2024/03/10 10:08:45;;;;;;;2.03;1.43;;;;;;;-0.03;60.00;102623.69;5081128;28;20524;-76
2024/03/10 10:11:13;;;;;;;1.13;1.03;;;;;;;-0.08;60.00;102617.41;5090342;28;20853;-75
2024/03/10 10:13:42;;;;;;;1.80;1.23;;;;;;;-0.04;59.85;102621.88;5085318;28;20456;-78
2024/03/10 10:16:09;;;;;;;2.33;1.00;;;;;;;0.03;60.35;102629.13;5085800;28;20563;-76
2024/03/10 10:18:37;;;;;;;3.20;1.50;;;;;;;0.06;60.40;102634.44;5087381;28;20531;-76
2024/03/10 10:21:07;;;;;;;1.70;1.10;;;;;;;0.04;60.32;102628.31;5084750;28;20464;-78
2024/03/10 10:23:36;;;;;;;0.93;0.70;;;;;;;-0.05;60.61;102601.25;5088058;28;20440;-77
2024/03/10 10:26:09;;;;;;;1.60;1.20;;;;;;;0.09;60.50;102629.44;5081698;28;20452;-79
2024/03/10 10:28:38;;;;;;;4.23;1.40;;;;;;;-0.04;60.47;102596.16;5087602;28;20444;-78
2024/03/10 10:31:13;;;;;;;2.27;1.47;;;;;;;0.09;60.25;102624.28;5083327;28;20455;-77
2024/03/10 10:33:41;;;;;;;1.70;0.97;;;;;;;0.11;60.45;102626.91;5085841;28;20443;-78
2024/03/10 10:36:09;;;;;;;1.47;1.10;;;;;;;0.10;60.27;102628.59;5085444;28;20579;-76
2024/03/10 10:38:38;;;;;;;1.20;0.97;;;;;;;0.09;60.23;102618.25;5085434;28;20436;-77
2024/03/10 10:41:07;;;;;;;1.57;1.30;;;;;;;0.03;60.48;102615.38;5082385;28;20443;-78
2024/03/10 10:43:37;;;;;;;1.70;1.60;;;;;;;0.04;60.31;102615.44;5084513;28;21000;-77
2024/03/10 10:46:05;;;;;;;1.50;1.40;;;;;;;0.03;59.83;102616.25;5086115;28;20444;-77
2024/03/10 10:48:34;;;;;;;2.87;1.30;;;;;;;0.09;59.62;102620.84;5084116;28;20453;-81
2024/03/10 10:51:02;;;;;;;3.00;1.60;;;;;;;0.09;59.04;102624.28;5083566;28;20443;-82
2024/03/10 10:53:31;;;;;;;1.40;1.20;;;;;;;0.11;59.84;102630.41;5087119;28;20462;-81
2024/03/10 10:55:59;;;;;;;1.70;1.40;;;;;;;0.11;59.67;102626.91;5087004;28;20481;-78
2024/03/10 10:58:29;;;;;;;1.67;1.37;;;;;;;0.13;59.92;102630.47;5083826;28;20935;-81
2024/03/10 11:01:00;;;;;;;2.07;1.43;;;;;;;0.13;59.66;102622.72;5083121;28;20484;-80
2024/03/10 11:03:32;;;;;;;1.67;1.17;;;;;;;0.16;60.02;102622.88;5079615;28;20449;-80
2024/03/10 11:06:30;;;;;;;2.80;1.77;;;;;;;0.17;59.84;102627.25;5085938;28;20861;-79
2024/03/10 11:08:59;;;;;;;0.80;0.80;;;;;;;0.16;59.72;102622.00;5091132;28;20483;-79
2024/03/10 11:11:51;;;;;;;3.73;1.57;;;;;;;0.16;60.04;102619.44;5087647;28;20906;-81
2024/03/10 11:14:21;;;;;;;4.70;1.00;;;;;;;0.15;59.72;102617.69;5076372;28;20494;-81
2024/03/10 11:16:49;;;;;;;0.47;0.47;;;;;;;0.16;59.52;102619.44;5075849;28;20438;-80
2024/03/10 11:19:19;;;;;;;3.40;1.40;;;;;;;0.15;59.77;102612.53;5086323;28;20437;-80
2024/03/10 11:21:47;;;;;;;1.47;0.80;;;;;;;0.08;60.09;102601.94;5084634;28;20958;-80
2024/03/10 11:24:21;;;;;;;0.43;0.43;;;;;;;0.05;59.63;102588.91;5084283;28;20448;-81
2024/03/10 11:26:49;;;;;;;1.10;0.90;;;;;;;0.05;60.36;102591.50;5086845;28;20439;-80
2024/03/10 11:29:27;;;;;;;1.80;1.60;;;;;;;0.18;59.41;102613.56;5081872;28;20437;-80
2024/03/10 11:31:58;;;;;;;2.00;1.40;;;;;;;0.07;59.38;102588.97;5087799;28;20450;-81
2024/03/10 11:34:26;;;;;;;3.90;1.60;;;;;;;0.17;59.82;102606.66;5082522;28;20449;-80
2024/03/10 11:36:53;;;;;;;1.90;0.93;;;;;;;0.22;59.92;102612.00;5086453;28;20806;-81
2024/03/10 11:39:21;;;;;;;1.40;1.30;;;;;;;0.22;60.07;102610.31;5090935;28;20504;-80
2024/03/10 11:41:49;;;;;;;1.20;1.10;;;;;;;0.22;59.65;102614.59;5084276;28;20972;-78
2024/03/10 11:44:16;;;;;;;1.03;0.60;;;;;;;0.24;59.76;102607.84;5079091;28;20501;-80
2024/03/10 11:46:44;;;;;;;1.50;1.30;;;;;;;0.22;59.95;102604.28;5087847;28;20539;-80
2024/03/10 11:49:13;;;;;;;1.07;0.93;;;;;;;0.24;59.96;102610.41;5091161;28;20513;-81
2024/03/10 11:51:40;;;;;;;2.33;0.77;;;;;;;0.24;59.58;102613.84;5086189;28;20448;-81
2024/03/10 11:54:13;;;;;;;1.97;1.40;;;;;;;0.23;59.67;102600.94;5092054;28;20448;-80